Time;durP1;ratioP1;P1;durP2;ratioP2;P2;SDS_P1;SDS_P2;PMS_P1;PMS_P2;Temp;Humidity;BMP_temperature;BMP_pressure;BME280_temperature;BME280_humidity;BME280_pressure;Samples;Min_cycle;Max_cycle;Signal;HPM_P1;HPM_P2
2023/11/11 00:02:09;;;;;;;29.38;17.25;;;281.60;2278.40;;;;;;5043395;28;20045;-76
2023/11/11 00:04:34;;;;;;;28.00;17.45;;;281.60;2278.40;;;;;;5029409;28;20033;-77
2023/11/11 00:07:00;;;;;;;25.25;17.98;;;281.70;2278.40;;;;;;5035785;28;20041;-77
2023/11/11 00:09:27;;;;;;;27.02;18.13;;;281.70;2278.40;;;;;;5036573;28;20427;-76
2023/11/11 00:11:55;;;;;;;27.88;17.85;;;281.80;2278.40;;;;;;5052732;28;20052;-76
2023/11/11 00:14:21;;;;;;;27.80;19.10;;;281.80;2278.40;;;;;;5054175;28;20021;-77
2023/11/11 00:16:47;;;;;;;28.83;18.13;;;281.80;2278.40;;;;;;5053759;28;20053;-77
2023/11/11 00:19:13;;;;;;;26.90;17.63;;;281.80;2278.40;;;;;;5053907;28;20082;-77
2023/11/11 00:21:42;;;;;;;26.67;17.77;;;281.90;2278.40;;;;;;5035703;28;20548;-76
2023/11/11 00:24:11;;;;;;;28.88;18.92;;;281.80;2278.40;;;;;;5053525;28;20099;-76
2023/11/11 00:26:40;;;;;;;28.75;18.58;;;281.80;2278.40;;;;;;5053578;28;20024;-76
2023/11/11 00:29:07;;;;;;;29.98;17.45;;;281.80;2278.40;;;;;;5035771;28;20037;-77
2023/11/11 00:31:34;;;;;;;31.08;18.58;;;281.90;2278.40;;;;;;5053567;28;20031;-76
2023/11/11 00:34:01;;;;;;;28.52;17.70;;;281.90;2278.40;;;;;;5035863;28;20048;-77
2023/11/11 00:36:27;;;;;;;24.60;16.63;;;282.00;2278.40;;;;;;5035557;28;20025;-77
2023/11/11 00:38:53;;;;;;;24.05;17.77;;;282.00;2278.40;;;;;;5035636;28;20024;-76
2023/11/11 00:41:19;;;;;;;23.65;16.67;;;282.00;2278.40;;;;;;5052922;28;20017;-76
2023/11/11 00:43:45;;;;;;;28.60;17.38;;;281.90;2278.40;;;;;;5053563;28;20501;-77
2023/11/11 00:46:11;;;;;;;23.75;16.60;;;281.80;2278.40;;;;;;5052866;28;20033;-76
2023/11/11 00:48:37;;;;;;;23.73;16.45;;;281.70;2278.40;;;;;;5035010;28;20495;-76
2023/11/11 00:51:04;;;;;;;26.65;17.55;;;281.70;2278.40;;;;;;5034573;28;20443;-77
2023/11/11 00:53:29;;;;;;;29.35;18.73;;;281.70;2278.40;;;;;;5053276;28;20390;-77
2023/11/11 00:55:55;;;;;;;24.00;16.35;;;281.70;2278.40;;;;;;5052902;28;20050;-77
2023/11/11 00:58:21;;;;;;;30.77;18.50;;;281.70;2278.40;;;;;;5052813;28;20029;-77
2023/11/11 01:00:46;;;;;;;29.92;19.20;;;281.60;2278.40;;;;;;5035313;28;20032;-77
2023/11/11 01:03:13;;;;;;;30.73;17.80;;;281.60;2278.40;;;;;;5035173;28;20418;-76
2023/11/11 01:05:40;;;;;;;26.95;18.08;;;281.60;2278.40;;;;;;5035031;28;20070;-76
2023/11/11 01:08:06;;;;;;;26.25;17.73;;;256.90;2252.80;;;;;;5035244;28;20045;-76
2023/11/11 01:10:37;;;;;;;27.67;18.95;;;256.90;2252.80;;;;;;5052540;28;20352;-76
2023/11/11 01:13:03;;;;;;;28.38;18.55;;;256.90;2252.80;;;;;;5052890;28;20025;-77
2023/11/11 01:15:28;;;;;;;28.65;17.92;;;256.90;2252.80;;;;;;5039814;28;20029;-76
2023/11/11 01:17:54;;;;;;;26.88;17.58;;;256.90;2252.80;;;;;;5034979;28;20048;-76
2023/11/11 01:20:20;;;;;;;31.17;18.58;;;256.80;2252.80;;;;;;5052865;28;20355;-76
2023/11/11 01:22:46;;;;;;;28.30;18.70;;;256.60;2252.80;;;;;;5053033;28;20116;-76
2023/11/11 01:25:12;;;;;;;27.90;17.95;;;256.70;2252.80;;;;;;5052528;28;20099;-77
2023/11/11 01:27:39;;;;;;;27.33;17.55;;;256.70;2252.80;;;;;;5034504;28;20535;-77
2023/11/11 01:30:06;;;;;;;27.67;18.40;;;256.60;2252.80;;;;;;5052453;28;20475;-76
2023/11/11 01:32:33;;;;;;;27.05;17.70;;;256.80;2252.80;;;;;;5052807;28;20039;-76
2023/11/11 01:34:58;;;;;;;27.48;18.33;;;256.70;2252.80;;;;;;5052831;28;20021;-76
2023/11/11 01:37:24;;;;;;;33.50;20.15;;;256.70;2252.80;;;;;;5052332;28;20044;-76
2023/11/11 01:39:50;;;;;;;28.33;18.38;;;256.80;2252.80;;;;;;5052907;28;20493;-76
2023/11/11 01:42:15;;;;;;;32.47;18.60;;;256.80;2252.80;;;;;;5052530;28;20075;-77
2023/11/11 01:44:41;;;;;;;26.95;17.80;;;256.90;2252.80;;;;;;5052995;28;20379;-77
2023/11/11 01:47:07;;;;;;;28.05;18.17;;;256.90;2252.80;;;;;;5052590;28;20044;-77
2023/11/11 01:49:34;;;;;;;31.27;19.80;;;281.60;2278.40;;;;;;5034877;28;20033;-76
2023/11/11 01:52:01;;;;;;;28.88;18.25;;;281.80;2278.40;;;;;;5034323;28;20071;-77
2023/11/11 01:54:29;;;;;;;26.08;17.70;;;281.60;2278.40;;;;;;5033633;28;20474;-77
2023/11/11 01:56:56;;;;;;;29.88;19.98;;;281.60;2048.00;;;;;;5034286;28;20390;-76
2023/11/11 01:59:24;;;;;;;27.92;16.98;;;281.60;2278.40;;;;;;5034715;28;20029;-77
2023/11/11 02:01:50;;;;;;;23.52;16.00;;;281.60;2278.40;;;;;;5034683;28;20508;-76
2023/11/11 02:04:16;;;;;;;25.08;17.80;;;281.60;2278.40;;;;;;5034433;28;20025;-77
2023/11/11 02:06:43;;;;;;;29.30;18.23;;;281.60;2278.40;;;;;;5034343;28;20048;-77
2023/11/11 02:09:10;;;;;;;28.50;17.73;;;281.60;2278.40;;;;;;5034706;28;20076;-76
2023/11/11 02:11:36;;;;;;;26.02;16.67;;;281.60;2278.40;;;;;;5052515;28;20056;-77
2023/11/11 02:14:02;;;;;;;25.20;17.67;;;281.60;2278.40;;;;;;5052457;28;20032;-76
2023/11/11 02:16:29;;;;;;;27.25;17.60;;;281.60;2278.40;;;;;;5033492;28;21941;-77
2023/11/11 02:18:54;;;;;;;27.48;17.75;;;281.60;2278.40;;;;;;5052329;28;20022;-76
2023/11/11 02:21:20;;;;;;;25.23;16.52;;;281.60;2278.40;;;;;;5033951;28;20548;-76
2023/11/11 02:23:48;;;;;;;25.98;17.63;;;281.60;2278.40;;;;;;5034587;28;20025;-77
2023/11/11 02:26:14;;;;;;;28.15;16.73;;;256.90;2252.80;;;;;;5052116;28;20532;-77
2023/11/11 02:28:40;;;;;;;26.20;17.15;;;256.70;2252.80;;;;;;5052238;28;20033;-76
2023/11/11 02:31:08;;;;;;;28.63;17.88;;;256.70;2252.80;;;;;;5052469;28;20131;-77
2023/11/11 02:33:35;;;;;;;29.75;18.92;;;256.60;2252.80;;;;;;5052413;28;20032;-77
2023/11/11 02:36:01;;;;;;;34.47;18.77;;;256.50;2252.80;;;;;;5034409;28;20021;-77
2023/11/11 02:38:27;;;;;;;28.25;18.63;;;256.50;2252.80;;;;;;5052107;28;20112;-77
2023/11/11 02:40:53;;;;;;;36.17;19.45;;;256.50;2252.80;;;;;;5034302;28;20025;-77
2023/11/11 02:43:18;;;;;;;30.42;19.58;;;256.70;2252.80;;;;;;5053882;28;20052;-77
2023/11/11 02:45:44;;;;;;;30.27;19.30;;;256.70;2252.80;;;;;;5037247;28;20056;-76
2023/11/11 02:48:10;;;;;;;28.50;18.55;;;256.80;2252.80;;;;;;5055658;28;20495;-76
2023/11/11 02:50:36;;;;;;;31.83;20.23;;;256.80;2252.80;;;;;;5037461;28;20355;-77
2023/11/11 02:53:01;;;;;;;29.63;19.02;;;256.90;2252.80;;;;;;5057981;28;20025;-76
2023/11/11 02:55:27;;;;;;;28.20;17.90;;;256.90;2252.80;;;;;;5040651;28;20017;-77
2023/11/11 02:57:53;;;;;;;35.03;19.23;;;256.90;2252.80;;;;;;5057033;28;20056;-78
2023/11/11 03:00:21;;;;;;;28.23;18.63;;;256.90;2252.80;;;;;;5037746;28;20020;-76
2023/11/11 03:02:46;;;;;;;27.13;16.73;;;256.80;2252.80;;;;;;5055547;28;20017;-77
2023/11/11 03:05:12;;;;;;;29.17;18.85;;;256.80;1971.20;;;;;;5055080;28;20083;-77
2023/11/11 03:07:38;;;;;;;;;;;256.90;2099.20;;;;;;5037465;28;20067;-77
2023/11/11 03:10:07;;;;;;;25.35;16.58;;;256.90;1971.20;;;;;;5055107;28;19905;-77
2023/11/11 03:12:33;;;;;;;26.65;17.65;;;256.90;2252.80;;;;;;5055241;28;20029;-76
2023/11/11 03:14:59;;;;;;;27.15;18.02;;;256.90;2252.80;;;;;;5037117;28;20013;-78
2023/11/11 03:17:29;;;;;;;26.15;16.63;;;256.80;2252.80;;;;;;5037123;28;20060;-76
2023/11/11 03:19:56;;;;;;;27.85;16.98;;;256.70;2252.80;;;;;;5036737;28;20061;-77
2023/11/11 03:22:22;;;;;;;29.20;17.63;;;256.70;2252.80;;;;;;5055117;28;20032;-77
2023/11/11 03:24:48;;;;;;;29.92;18.55;;;256.60;2252.80;;;;;;5036748;28;20021;-77
2023/11/11 03:27:14;;;;;;;26.67;15.68;;;256.50;2252.80;;;;;;5054989;28;20029;-76
2023/11/11 03:29:39;;;;;;;30.67;18.38;;;256.50;2252.80;;;;;;5036810;28;20078;-77
2023/11/11 03:32:07;;;;;;;38.90;17.60;;;256.70;2252.80;;;;;;5055205;28;20031;-76
2023/11/11 03:34:33;;;;;;;41.17;17.13;;;256.60;2252.80;;;;;;5036431;28;20128;-77
2023/11/11 03:36:59;;;;;;;41.72;18.17;;;256.50;2252.80;;;;;;5054739;28;20021;-77
2023/11/11 03:39:27;;;;;;;84.13;20.20;;;256.50;2252.80;;;;;;5036923;28;20028;-77
2023/11/11 03:41:53;;;;;;;93.20;19.65;;;256.50;2252.80;;;;;;5036847;28;20021;-77
2023/11/11 03:44:18;;;;;;;98.55;20.23;;;256.60;2252.80;;;;;;5036644;28;20498;-77
2023/11/11 03:46:44;;;;;;;76.82;18.98;;;256.30;2252.80;;;;;;5054760;28;20033;-76
2023/11/11 03:49:10;;;;;;;84.45;21.95;;;256.30;2252.80;;;;;;5054594;28;20061;-76
2023/11/11 03:51:35;;;;;;;102.60;24.20;;;256.20;2252.80;;;;;;5054807;28;20139;-76
2023/11/11 03:54:01;;;;;;;99.40;22.55;;;256.30;2252.80;;;;;;5053887;28;20067;-76
2023/11/11 03:56:27;;;;;;;76.60;23.00;;;256.30;2252.80;;;;;;5036434;28;20025;-77
2023/11/11 03:58:52;;;;;;;;;;;256.50;2252.80;;;;;;5054506;28;20017;-76
2023/11/11 04:01:18;;;;;;;56.20;20.50;;;256.40;2252.80;;;;;;5036433;28;20251;-76
2023/11/11 04:03:44;;;;;;;;;;;256.50;2252.80;;;;;;5036327;28;20186;-77
2023/11/11 04:06:11;;;;;;;195.80;29.55;;;256.50;2252.80;;;;;;5054136;28;19950;-77
2023/11/11 04:08:39;;;;;;;117.10;25.23;;;256.50;2252.80;;;;;;5053942;28;20033;-76
2023/11/11 04:11:08;;;;;;;196.35;28.60;;;256.60;2252.80;;;;;;5036065;28;20132;-76
2023/11/11 04:13:41;;;;;;;104.47;28.08;;;256.60;2252.80;;;;;;5035515;28;20028;-76
2023/11/11 04:16:11;;;;;;;83.82;27.88;;;256.70;2252.80;;;;;;5036036;28;20563;-76
2023/11/11 04:18:37;;;;;;;173.02;32.83;;;256.80;2252.80;;;;;;5053897;28;20025;-77
2023/11/11 04:21:03;;;;;;;288.70;40.25;;;256.80;2252.80;;;;;;5054046;28;20111;-76
2023/11/11 04:23:30;;;;;;;207.32;37.88;;;256.80;2252.80;;;;;;5035986;28;20017;-77
2023/11/11 04:26:00;;;;;;;197.75;34.30;;;256.80;2252.80;;;;;;5053856;28;20032;-77
2023/11/11 04:28:27;;;;;;;139.77;27.83;;;256.90;2252.80;;;;;;5041078;28;20059;-76
2023/11/11 04:30:53;;;;;;;309.88;44.33;;;256.90;2252.80;;;;;;5053783;28;20017;-77
2023/11/11 04:33:22;;;;;;;192.95;31.65;;;256.80;2252.80;;;;;;5035764;28;20520;-76
2023/11/11 04:35:49;;;;;;;181.32;32.55;;;256.80;2252.80;;;;;;5053695;28;20024;-77
2023/11/11 04:38:15;;;;;;;183.20;27.98;;;256.70;2252.80;;;;;;5035843;28;20028;-77
2023/11/11 04:40:42;;;;;;;131.55;26.17;;;256.80;2252.80;;;;;;5053348;28;20353;-76
2023/11/11 04:43:07;;;;;;;59.40;24.95;;;256.80;2252.80;;;;;;5035646;28;20016;-76
2023/11/11 04:45:33;;;;;;;60.28;25.80;;;256.90;2252.80;;;;;;5053344;28;20539;-77
2023/11/11 04:47:59;;;;;;;152.75;32.67;;;256.90;2252.80;;;;;;5035525;28;20037;-76
2023/11/11 04:50:24;;;;;;;175.45;34.40;;;256.90;2252.80;;;;;;5053189;28;20414;-77
2023/11/11 04:52:50;;;;;;;180.38;36.40;;;256.90;2252.80;;;;;;5053391;28;20031;-76
2023/11/11 04:55:17;;;;;;;111.03;31.30;;;256.90;2252.80;;;;;;5053160;28;20087;-77
2023/11/11 04:57:43;;;;;;;96.60;28.05;;;256.90;2252.80;;;;;;5053353;28;20429;-77
2023/11/11 05:00:13;;;;;;;74.20;26.73;;;256.90;2252.80;;;;;;5035109;28;20033;-77
2023/11/11 05:02:43;;;;;;;69.63;26.80;;;281.60;2278.40;;;;;;5053226;28;20021;-76
2023/11/11 05:05:11;;;;;;;58.40;24.02;;;281.60;2278.40;;;;;;5052211;28;20108;-78
2023/11/11 05:07:39;;;;;;;71.80;23.38;;;281.70;2278.40;;;;;;5053156;28;20087;-77
2023/11/11 05:10:09;;;;;;;45.10;21.95;;;281.70;2278.40;;;;;;5052817;28;20013;-77
2023/11/11 05:12:37;;;;;;;58.83;22.80;;;281.70;2278.40;;;;;;5035020;28;20032;-77
2023/11/11 05:15:12;;;;;;;55.83;23.98;;;281.70;2278.40;;;;;;5052697;28;20013;-77
2023/11/11 05:17:37;;;;;;;76.55;23.48;;;281.70;2278.40;;;;;;5034874;28;20503;-77
2023/11/11 05:20:04;;;;;;;56.13;24.08;;;281.70;2278.40;;;;;;5034636;28;20071;-76
2023/11/11 05:22:29;;;;;;;59.97;22.77;;;281.70;2278.40;;;;;;5052958;28;20079;-76
2023/11/11 05:24:55;;;;;;;56.58;28.88;;;281.60;2278.40;;;;;;5032086;28;20033;-76
2023/11/11 05:27:21;;;;;;;70.72;24.98;;;281.60;2278.40;;;;;;5045516;28;20106;-76
2023/11/11 05:29:47;;;;;;;44.42;22.70;;;281.60;2278.40;;;;;;5047603;28;20108;-76
2023/11/11 05:32:12;;;;;;;40.55;21.70;;;281.70;2278.40;;;;;;5042603;28;20032;-76
2023/11/11 05:34:38;;;;;;;50.67;22.15;;;281.70;2278.40;;;;;;5024632;28;20112;-76
2023/11/11 05:37:04;;;;;;;69.60;28.88;;;281.70;2278.40;;;;;;5030003;28;20135;-77
2023/11/11 05:39:30;;;;;;;49.97;25.02;;;281.80;2278.40;;;;;;5042194;28;20029;-76
2023/11/11 05:41:55;;;;;;;;;;;281.90;2278.40;;;;;;5046900;28;20044;-76
2023/11/11 05:44:21;;;;;;;43.85;21.50;;;281.70;2278.40;;;;;;5048637;28;19908;-77
2023/11/11 05:46:47;;;;;;;92.75;35.28;;;281.90;2278.40;;;;;;5046495;28;20017;-76
2023/11/11 05:49:12;;;;;;;;;;;281.80;2278.40;;;;;;5034768;28;20112;-76
2023/11/11 05:51:38;;;;;;;41.17;21.55;;;281.70;2278.40;;;;;;5045684;28;19930;-76
2023/11/11 05:54:04;;;;;;;35.92;20.73;;;281.70;2278.40;;;;;;5033820;28;20037;-76
2023/11/11 05:56:30;;;;;;;37.22;20.65;;;281.60;2278.40;;;;;;5034139;28;20079;-76
2023/11/11 05:58:58;;;;;;;31.50;20.15;;;281.70;2278.40;;;;;;5042632;28;20029;-77
2023/11/11 06:01:26;;;;;;;38.40;20.00;;;281.70;2278.40;;;;;;5046582;28;20028;-76
2023/11/11 06:03:52;;;;;;;42.67;22.20;;;281.60;2278.40;;;;;;5048049;28;20017;-76
2023/11/11 06:06:17;;;;;;;37.28;22.00;;;256.90;2252.80;;;;;;5044879;28;20064;-76
2023/11/11 06:08:43;;;;;;;39.28;20.67;;;256.90;2252.80;;;;;;5049816;28;20502;-75
2023/11/11 06:11:09;;;;;;;44.17;22.38;;;256.90;2252.80;;;;;;5043926;28;20064;-76
2023/11/11 06:13:35;;;;;;;43.17;23.23;;;256.90;2252.80;;;;;;5036264;28;20029;-77
2023/11/11 06:16:00;;;;;;;52.13;27.40;;;256.90;2252.80;;;;;;5023463;28;20041;-75
2023/11/11 06:18:26;;;;;;;73.72;31.80;;;256.90;2252.80;;;;;;5054690;28;20036;-78
2023/11/11 06:20:52;;;;;;;50.65;26.85;;;256.90;2252.80;;;;;;5050511;28;20021;-77
2023/11/11 06:23:17;;;;;;;45.80;24.80;;;256.90;2252.80;;;;;;5043598;28;20383;-78
2023/11/11 06:25:43;;;;;;;50.70;29.55;;;281.60;2278.40;;;;;;5047178;28;20471;-79
2023/11/11 06:28:10;;;;;;;51.85;31.05;;;281.70;2278.40;;;;;;5050804;28;20039;-79
2023/11/11 06:30:36;;;;;;;49.92;29.35;;;281.70;2278.40;;;;;;5067277;28;20089;-79
2023/11/11 06:33:01;;;;;;;40.85;24.63;;;281.70;2278.40;;;;;;5039658;28;20068;-79
2023/11/11 06:35:28;;;;;;;38.03;22.83;;;281.80;2278.40;;;;;;5046819;28;20049;-79
2023/11/11 06:37:55;;;;;;;41.03;27.60;;;281.80;2278.40;;;;;;5038106;28;20025;-80
2023/11/11 06:40:22;;;;;;;46.35;28.05;;;281.90;2278.40;;;;;;5044755;28;20014;-81
2023/11/11 06:42:49;;;;;;;38.88;25.13;;;281.80;2278.40;;;;;;5049312;28;20120;-80
2023/11/11 06:45:14;;;;;;;43.72;26.95;;;282.00;2278.40;;;;;;5029121;28;20094;-77
2023/11/11 06:47:44;;;;;;;46.42;27.67;;;282.10;2278.40;;;;;;5037334;28;20033;-78
2023/11/11 06:50:10;;;;;;;39.88;23.95;;;282.10;2278.40;;;;;;5027463;28;20041;-77
2023/11/11 06:52:37;;;;;;;49.38;25.65;;;282.00;2278.40;;;;;;5030754;28;20033;-77
2023/11/11 06:55:03;;;;;;;44.03;25.83;;;282.00;2278.40;;;;;;5051295;28;20024;-80
2023/11/11 06:57:29;;;;;;;41.70;24.95;;;282.00;2278.40;;;;;;5032942;28;20036;-77
2023/11/11 06:59:55;;;;;;;45.38;25.10;;;282.00;2278.40;;;;;;5026345;28;20033;-78
2023/11/11 07:02:22;;;;;;;44.17;26.17;;;282.00;2278.40;;;;;;5023413;28;20056;-78
2023/11/11 07:04:54;;;;;;;45.33;24.48;;;282.00;2278.40;;;;;;5025945;28;20439;-77
2023/11/11 07:07:24;;;;;;;50.38;26.35;;;282.00;2278.40;;;;;;5031927;28;20032;-78
2023/11/11 07:09:52;;;;;;;44.15;26.00;;;282.00;2278.40;;;;;;5034373;28;20080;-86
2023/11/11 07:12:21;;;;;;;46.05;25.90;;;282.10;2278.40;;;;;;5031891;28;20115;-82
2023/11/11 07:14:47;;;;;;;45.70;25.98;;;282.20;2278.40;;;;;;5033518;28;20112;-80
2023/11/11 07:17:13;;;;;;;46.45;27.42;;;282.20;2278.40;;;;;;5033635;28;20388;-82
2023/11/11 07:19:38;;;;;;;53.70;26.98;;;282.20;2278.40;;;;;;5037129;28;20035;-83
2023/11/11 07:22:05;;;;;;;47.85;26.58;;;282.40;2278.40;;;;;;5036241;28;20033;-84
2023/11/11 07:24:31;;;;;;;60.05;33.28;;;282.40;2278.40;;;;;;5054948;28;20048;-84
2023/11/11 07:26:56;;;;;;;57.08;33.65;;;282.50;2278.40;;;;;;5031193;28;20479;-82
2023/11/11 07:29:25;;;;;;;55.42;33.42;;;307.20;2304.00;;;;;;5029710;28;20400;-83
2023/11/11 07:31:52;;;;;;;54.10;30.90;;;307.50;2304.00;;;;;;5029882;28;20067;-83
2023/11/11 07:34:18;;;;;;;53.47;30.95;;;332.80;2329.60;;;;;;5046548;28;20031;-84
2023/11/11 07:36:43;;;;;;;53.92;30.42;;;307.90;2304.00;;;;;;5046792;28;20024;-84
2023/11/11 07:39:09;;;;;;;59.65;30.48;;;308.10;2304.00;;;;;;5030879;28;20044;-84
2023/11/11 07:41:35;;;;;;;51.30;29.45;;;332.80;2329.60;;;;;;5034764;28;20048;-84
2023/11/11 07:44:06;;;;;;;55.13;34.03;;;332.80;2329.60;;;;;;5034576;28;20367;-83
2023/11/11 07:46:32;;;;;;;54.30;32.95;;;332.80;2329.60;;;;;;5034489;28;20040;-83
2023/11/11 07:49:01;;;;;;;56.53;35.50;;;332.80;2329.60;;;;;;5033794;28;20040;-85
2023/11/11 07:51:27;;;;;;;54.45;33.67;;;332.80;2329.60;;;;;;5031585;28;20039;-84
2023/11/11 07:53:53;;;;;;;46.10;32.97;;;308.10;2304.00;;;;;;5034277;28;20033;-80
2023/11/11 07:56:19;;;;;;;53.33;35.53;;;308.10;2304.00;;;;;;5050892;28;20033;-83
2023/11/11 07:58:47;;;;;;;53.13;36.03;;;308.10;2304.00;;;;;;5032602;28;20461;-84
2023/11/11 08:01:16;;;;;;;60.50;39.80;;;308.00;2304.00;;;;;;5028473;28;20033;-83
2023/11/11 08:03:43;;;;;;;63.53;40.63;;;308.10;2304.00;;;;;;5025876;28;20414;-79
2023/11/11 08:06:09;;;;;;;72.20;43.47;;;308.00;2304.00;;;;;;5036569;28;20071;-81
2023/11/11 08:08:35;;;;;;;67.38;42.95;;;308.00;2304.00;;;;;;5027920;28;20068;-80
2023/11/11 08:11:01;;;;;;;60.97;40.92;;;308.10;2304.00;;;;;;5036317;28;20029;-81
2023/11/11 08:13:28;;;;;;;63.58;42.40;;;308.10;2304.00;;;;;;5030364;28;20025;-81
2023/11/11 08:15:53;;;;;;;60.05;40.90;;;308.10;2304.00;;;;;;5031117;28;20029;-79
2023/11/11 08:18:20;;;;;;;66.70;42.80;;;308.10;2304.00;;;;;;5051367;28;20089;-80
2023/11/11 08:20:46;;;;;;;63.00;40.67;;;332.80;2329.60;;;;;;5022238;28;20036;-78
2023/11/11 08:23:12;;;;;;;59.85;41.83;;;332.80;2048.00;;;;;;5023365;28;20037;-85
2023/11/11 08:25:38;;;;;;;69.65;43.75;;;332.90;2048.00;;;;;;5024857;28;20029;-77
2023/11/11 08:28:04;;;;;;;59.13;40.40;;;333.00;2329.60;;;;;;5050648;28;20030;-77
2023/11/11 08:30:30;;;;;;;155.35;63.90;;;333.00;2329.60;;;;;;5024014;28;20060;-78
2023/11/11 08:32:57;;;;;;;74.35;46.15;;;333.00;2227.20;;;;;;5045995;28;20040;-78
2023/11/11 08:35:23;;;;;;;65.63;42.00;;;333.00;2329.60;;;;;;5025805;28;20029;-77
2023/11/11 08:37:48;;;;;;;63.50;38.40;;;333.00;2073.60;;;;;;5032559;28;20021;-78
2023/11/11 08:40:17;;;;;;;59.10;37.00;;;332.90;2329.60;;;;;;5034989;28;20040;-78
2023/11/11 08:42:44;;;;;;;188.95;91.88;;;333.00;2329.60;;;;;;5030513;28;20025;-77
2023/11/11 08:45:09;;;;;;;69.28;40.78;;;332.90;2329.60;;;;;;5032274;28;20025;-82
2023/11/11 08:47:37;;;;;;;55.20;36.63;;;332.90;2329.60;;;;;;5024549;28;20041;-82
2023/11/11 08:50:06;;;;;;;61.22;36.88;;;332.90;2329.60;;;;;;5031480;28;20025;-77
2023/11/11 08:52:33;;;;;;;71.10;39.50;;;332.90;2329.60;;;;;;5047183;28;20383;-76
2023/11/11 08:55:00;;;;;;;68.43;39.58;;;333.00;2227.20;;;;;;5045804;28;20025;-74
2023/11/11 08:57:25;;;;;;;69.13;36.45;;;333.00;2329.60;;;;;;5051365;28;20025;-77
2023/11/11 08:59:51;;;;;;;56.05;35.58;;;333.00;2329.60;;;;;;5047500;28;20112;-78
2023/11/11 09:02:17;;;;;;;64.45;39.40;;;333.00;2329.60;;;;;;5043584;28;20120;-77
2023/11/11 09:04:43;;;;;;;62.88;38.35;;;333.00;2329.60;;;;;;5050823;28;20032;-77
2023/11/11 09:07:08;;;;;;;52.55;33.05;;;333.00;2329.60;;;;;;5033727;28;20107;-77
2023/11/11 09:09:35;;;;;;;51.65;32.72;;;332.90;2329.60;;;;;;5044965;28;20044;-76
2023/11/11 09:12:01;;;;;;;59.47;36.40;;;332.90;2329.60;;;;;;5027776;28;20024;-77
2023/11/11 09:14:33;;;;;;;55.47;36.80;;;332.90;2329.60;;;;;;5025724;28;20391;-78
2023/11/11 09:17:00;;;;;;;57.50;36.95;;;333.00;2329.60;;;;;;5026360;28;20053;-77
2023/11/11 09:19:27;;;;;;;56.65;36.55;;;332.90;2329.60;;;;;;5041917;28;20096;-77
2023/11/11 09:21:53;;;;;;;53.38;34.33;;;332.90;2329.60;;;;;;5047839;28;20030;-78
2023/11/11 09:24:19;;;;;;;62.53;38.42;;;333.00;2329.60;;;;;;5051646;28;20521;-76
2023/11/11 09:26:44;;;;;;;43.55;29.17;;;333.00;2329.60;;;;;;5030861;28;20491;-79
2023/11/11 09:29:13;;;;;;;43.58;27.80;;;332.90;2329.60;;;;;;5032818;28;20045;-79
2023/11/11 09:31:38;;;;;;;38.80;25.83;;;332.90;2329.60;;;;;;5026606;28;20076;-82
2023/11/11 09:34:05;;;;;;;38.50;25.35;;;332.90;2329.60;;;;;;5029890;28;20037;-81
2023/11/11 09:36:31;;;;;;;35.65;23.27;;;332.90;2329.60;;;;;;5030395;28;20029;-81
2023/11/11 09:38:56;;;;;;;31.63;21.85;;;332.90;2278.40;;;;;;5049654;28;20021;-81
2023/11/11 09:41:22;;;;;;;36.28;23.38;;;332.90;2329.60;;;;;;5035335;28;20021;-81
2023/11/11 09:43:49;;;;;;;44.42;26.48;;;332.90;2329.60;;;;;;5052335;28;20049;-78
2023/11/11 09:46:16;;;;;;;42.58;26.85;;;332.90;2329.60;;;;;;5060213;28;20029;-78
2023/11/11 09:48:43;;;;;;;44.78;27.83;;;333.00;2329.60;;;;;;5034266;28;20045;-79
2023/11/11 09:51:09;;;;;;;50.67;26.80;;;333.00;2329.60;;;;;;5045082;28;20029;-83
2023/11/11 09:53:36;;;;;;;42.45;26.92;;;333.00;2329.60;;;;;;5034962;28;20029;-80
2023/11/11 09:56:03;;;;;;;48.67;27.48;;;333.00;2329.60;;;;;;5048250;28;20032;-79
2023/11/11 09:58:31;;;;;;;59.90;31.52;;;333.00;2022.40;;;;;;5052098;28;20029;-80
2023/11/11 10:00:57;;;;;;;52.17;28.70;;;332.90;2329.60;;;;;;5031133;28;20091;-79
2023/11/11 10:03:23;;;;;;;41.55;25.70;;;333.00;2329.60;;;;;;5022882;28;20036;-80
2023/11/11 10:05:49;;;;;;;57.38;30.98;;;332.90;2329.60;;;;;;5038518;28;20463;-79
2023/11/11 10:08:15;;;;;;;61.13;30.90;;;332.90;2329.60;;;;;;5028611;28;20033;-80
2023/11/11 10:10:44;;;;;;;43.42;24.52;;;332.90;2329.60;;;;;;5035587;28;20057;-79
2023/11/11 10:13:10;;;;;;;36.30;22.40;;;332.90;2329.60;;;;;;5052775;28;20502;-83
2023/11/11 10:15:35;;;;;;;47.30;28.67;;;332.80;2329.60;;;;;;5038476;28;20108;-81
2023/11/11 10:18:05;;;;;;;41.78;25.90;;;332.80;2329.60;;;;;;5024885;28;20084;-84
2023/11/11 10:20:31;;;;;;;51.55;28.83;;;332.80;2329.60;;;;;;5039324;28;20143;-82
2023/11/11 10:23:00;;;;;;;53.72;29.83;;;332.80;2329.60;;;;;;5025026;28;20502;-81
2023/11/11 10:25:26;;;;;;;56.88;32.13;;;332.80;2329.60;;;;;;5039150;28;20021;-79
2023/11/11 10:27:53;;;;;;;45.70;26.02;;;332.80;2329.60;;;;;;5044076;28;20041;-80
2023/11/11 10:30:26;;;;;;;39.92;23.40;;;332.80;2329.60;;;;;;5035758;28;20504;-83
2023/11/11 10:32:53;;;;;;;62.78;32.17;;;332.80;2329.60;;;;;;5028338;28;20080;-81
2023/11/11 10:35:20;;;;;;;55.47;28.88;;;333.00;2329.60;;;;;;5038681;28;20098;-78
2023/11/11 10:37:47;;;;;;;39.50;24.58;;;332.80;2329.60;;;;;;5034543;28;20449;-79
2023/11/11 10:40:19;;;;;;;58.00;36.38;;;332.80;2329.60;;;;;;5032824;28;20025;-79
2023/11/11 10:42:46;;;;;;;80.88;45.35;;;332.90;2329.60;;;;;;5026635;28;20124;-79
2023/11/11 10:45:15;;;;;;;39.20;24.25;;;332.90;2329.60;;;;;;5047940;28;20356;-79
2023/11/11 10:47:47;;;;;;;54.08;29.02;;;332.90;2329.60;;;;;;5035285;28;20038;-80
2023/11/11 10:50:13;;;;;;;37.92;26.42;;;332.90;2329.60;;;;;;5048999;28;20036;-81
2023/11/11 10:52:40;;;;;;;32.80;23.80;;;332.90;2329.60;;;;;;5033466;28;20505;-77
2023/11/11 10:55:10;;;;;;;27.58;19.65;;;332.90;2329.60;;;;;;5033270;28;20510;-77
2023/11/11 10:57:40;;;;;;;27.08;18.45;;;333.00;2329.60;;;;;;5043323;28;20029;-78
2023/11/11 11:00:17;;;;;;;28.13;19.58;;;333.00;2329.60;;;;;;5031169;28;20071;-78
2023/11/11 11:02:47;;;;;;;;;;;333.10;2329.60;;;;;;5029749;28;20032;-80
2023/11/11 11:05:34;;;;;;;25.00;17.40;;;333.00;2329.60;;;;;;5042703;28;19908;-82
2023/11/11 11:08:31;;;;;;;35.97;22.17;;;333.10;2329.60;;;;;;5025472;28;20045;-83
2023/11/11 11:11:02;;;;;;;39.58;23.15;;;333.10;2329.60;;;;;;5022821;28;20124;-80
2023/11/11 11:13:30;;;;;;;35.63;22.02;;;333.00;2329.60;;;;;;5025083;28;20022;-80
2023/11/11 11:15:56;;;;;;;32.78;22.00;;;333.00;2329.60;;;;;;5030653;28;20049;-82
2023/11/11 11:18:23;;;;;;;31.25;21.90;;;333.00;2329.60;;;;;;5029406;28;20044;-79
2023/11/11 11:20:52;;;;;;;32.67;21.20;;;333.10;2329.60;;;;;;5037118;28;20141;-80
2023/11/11 11:23:21;;;;;;;29.63;20.02;;;333.10;2329.60;;;;;;5033331;28;20026;-81
2023/11/11 11:25:48;;;;;;;38.80;25.00;;;333.10;2329.60;;;;;;5029507;28;20025;-83
2023/11/11 11:28:21;;;;;;;27.73;19.75;;;333.20;2329.60;;;;;;5032772;28;20030;-83
2023/11/11 11:30:50;;;;;;;32.33;20.98;;;333.10;2329.60;;;;;;5033248;28;20026;-82
2023/11/11 11:33:35;;;;;;;30.00;21.13;;;333.10;2329.60;;;;;;5025698;28;20029;-84
2023/11/11 11:36:06;;;;;;;31.17;22.25;;;333.10;2329.60;;;;;;5029679;28;20028;-83
2023/11/11 11:38:35;;;;;;;30.75;22.52;;;333.00;2329.60;;;;;;5036463;28;20029;-83
2023/11/11 11:41:09;;;;;;;34.45;22.33;;;333.00;2329.60;;;;;;5049106;28;20043;-82
2023/11/11 11:43:36;;;;;;;36.90;24.20;;;333.10;2329.60;;;;;;5030431;28;20021;-85
2023/11/11 11:46:03;;;;;;;32.50;23.70;;;333.10;2329.60;;;;;;5033675;28;20072;-80
2023/11/11 11:48:31;;;;;;;32.78;23.23;;;333.10;2329.60;;;;;;5045648;28;20116;-84
2023/11/11 11:51:10;;;;;;;39.65;26.55;;;333.10;2329.60;;;;;;5040651;28;20677;-83
2023/11/11 11:53:37;;;;;;;44.40;28.63;;;333.10;2329.60;;;;;;5028328;28;20048;-84
2023/11/11 11:56:05;;;;;;;43.35;28.63;;;333.10;2329.60;;;;;;5029119;28;20040;-86
2023/11/11 11:58:48;;;;;;;36.80;26.00;;;333.10;2329.60;;;;;;5035408;28;20034;-82
2023/11/11 12:01:41;;;;;;;39.92;27.10;;;333.10;2329.60;;;;;;5045897;28;20104;-80